Hundvaag 1 weather for Jun 2008
Month no. 252
Obs.
Da.
Temp. Dew Point Precip. Wind
Speed
Wind gusts Cloud cover Press. Humidity Wind dir. Sunny OPT
01.06.2008 16,1   0,0 0,0   6 1014,9 66,0 315,0 1 85,0 %
02.06.2008 18,8   0,0 0,0   10 1016,3 44,0 157,5 1 97,5 %
03.06.2008 17,8   0,0 0,0   0 1010,8 47,0 135,0   72,5 %
04.06.2008 18,9   0,0 3,0   10 1015,9 43,0 157,5 1 97,5 %
05.06.2008 17,2   0,0 2,0   7 1017,9 44,0 22,5 1 87,5 %
06.06.2008 13,3   0,0 0,0   10 1016,9 66,0 135,0 1 92,5 %
07.06.2008 16,2   0,0 0,0   10 1018,6 69,0 45,0 1 95,0 %
08.06.2008 14,7   0,0 0,0   6 1021,3 85,0 270,0 1 82,5 %
09.06.2008 13,4   0,0 2,0   8 1022,0 73,0 315,0 1 87,5 %
10.06.2008 12,2   0,0 3,0   1 1010,8 73,0 112,5   67,5 %
11.06.2008 9,3   6,3 4,0   4 1007,8 82,0 247,5 1 65,0 %
12.06.2008 10,6   0,0 4,0   9 1008,5 78,0 45,0 1 85,0 %
13.06.2008 9,6   0,0 5,0   9 1006,1 72,0 157,5 1 82,5 %
14.06.2008 8,3   0,9 0,0   2 1003,7 83,0 90,0   67,5 %
15.06.2008 9,1   7,5 1,0   5 1001,4 83,0 45,0 1 70,0 %
16.06.2008 11,5   2,0 0,0   10 1003,7 88,0 45,0 1 90,0 %
17.06.2008 11,6   0,0 2,0   5 1007,8 74,0 45,0 1 77,5 %
18.06.2008 11,8   0,2 0,0   0 1005,8 86,0 135,0   65,0 %
19.06.2008 12,5   13,5 1,0   0 999,3 97,0 90,0 1 57,5 %
20.06.2008 11,2   21,6 1,0   1 1001,4 95,0 292,5   50,0 %
21.06.2008 9,8   9,0 3,0   2 1009,8 90,0 292,5 1 60,0 %
22.06.2008 9,1   0,3 0,0   0 1011,2 85,0 270,0   62,5 %
23.06.2008 12,2   11,0 0,0   3 994,9 98,0 202,5 1 65,0 %
24.06.2008 8,6   8,0 3,0   4 1015,2 87,0 270,0 1 67,5 %
25.06.2008 9,7   0,0 0,0   3 1015,2 87,0 67,5 1 70,0 %
26.06.2008 12,4   0,2 0,0   0 1008,1 73,0 135,0 1 65,0 %
27.06.2008 11,9   13,0 0,0   3 1006,4 97,0 157,5 1 62,5 %
28.06.2008 12,3   0,1 0,0   9 1007,8 81,0 135,0 1 87,5 %
29.06.2008 12,8   0,1 0,0   3 1007,8 95,0 135,0 1 75,0 %
30.06.2008 12,7   0,0 0,0   1 1008,5 96,0 157,5 1 70,0 %
                       
Avrg/Sum 12,5   93,7 1,1   4,7 1009,9 77,9 156,0 24 75,3 %